createdAt,value
2017-06-24T00:00:05.525Z,56.34
2017-06-24T00:00:31.095Z,56.34
2017-06-24T00:00:56.674Z,56.24
2017-06-24T00:01:22.235Z,56.24
2017-06-24T00:01:47.808Z,56.14
2017-06-24T00:02:13.393Z,56.34
2017-06-24T00:02:39.029Z,56.24
2017-06-24T00:03:04.602Z,56.24
2017-06-24T00:03:30.192Z,56.14
2017-06-24T00:03:55.757Z,55.85
2017-06-24T00:04:21.329Z,55.85
2017-06-24T00:04:46.910Z,56.34
2017-06-24T00:05:12.487Z,56.34
2017-06-24T00:05:38.059Z,55.94
2017-06-24T00:06:03.616Z,56.24
2017-06-24T00:06:29.178Z,55.94
2017-06-24T00:06:54.747Z,55.94
2017-06-24T00:07:20.317Z,56.14
2017-06-24T00:07:45.879Z,56.24
2017-06-24T00:08:11.448Z,56.43
2017-06-24T00:08:37.020Z,55.94
2017-06-24T00:09:02.580Z,55.94
2017-06-24T00:09:28.144Z,56.14
2017-06-24T00:09:53.740Z,56.34
2017-06-24T00:10:19.308Z,56.24
2017-06-24T00:10:44.879Z,56.24
2017-06-24T00:11:10.560Z,56.14
2017-06-24T00:11:36.236Z,56.24
2017-06-24T00:12:01.798Z,56.14
2017-06-24T00:12:27.370Z,56.14
2017-06-24T00:12:52.948Z,56.14
2017-06-24T00:13:18.518Z,56.14
2017-06-24T00:13:44.099Z,56.14
2017-06-24T00:14:09.668Z,56.24
2017-06-24T00:14:35.238Z,56.24
2017-06-24T00:15:00.827Z,56.24
2017-06-24T00:15:26.428Z,56.24
2017-06-24T00:15:51.959Z,56.24
2017-06-24T00:16:17.523Z,56.24
2017-06-24T00:16:43.098Z,56.24
2017-06-24T00:17:08.661Z,56.14
2017-06-24T00:17:34.235Z,56.24
2017-06-24T00:17:59.804Z,56.34
2017-06-24T00:18:25.380Z,56.24
2017-06-24T00:18:50.940Z,56.24
2017-06-24T00:19:16.527Z,56.24
2017-06-24T00:19:42.103Z,56.34
2017-06-24T00:20:07.643Z,56.14
2017-06-24T00:20:33.231Z,56.14
2017-06-24T00:20:58.785Z,56.62
2017-06-24T00:21:24.340Z,56.14
2017-06-24T00:21:49.922Z,56.14
2017-06-24T00:22:15.497Z,56.62
2017-06-24T00:22:41.083Z,56.14
2017-06-24T00:23:06.668Z,56.62
2017-06-24T00:23:32.248Z,56.34
2017-06-24T00:23:57.817Z,56.62
2017-06-24T00:24:23.435Z,56.34
2017-06-24T00:24:49.017Z,56.62
2017-06-24T00:25:14.584Z,56.52
2017-06-24T00:25:40.170Z,56.43
2017-06-24T00:26:05.738Z,56.43
2017-06-24T00:26:31.317Z,56.24
2017-06-24T00:26:56.870Z,56.34
2017-06-24T00:27:22.419Z,56.14
2017-06-24T00:27:47.986Z,56.34
2017-06-24T00:28:13.640Z,56.34
2017-06-24T00:28:39.262Z,56.43
2017-06-24T00:29:04.824Z,56.34
2017-06-24T00:29:30.407Z,56.34
2017-06-24T00:29:56.004Z,56.43
2017-06-24T00:30:21.583Z,56.24
2017-06-24T00:30:47.131Z,56.34
2017-06-24T00:31:12.696Z,56.43
2017-06-24T00:31:38.268Z,56.24
2017-06-24T00:32:03.851Z,56.24
2017-06-24T00:32:29.420Z,56.34
2017-06-24T00:32:54.990Z,56.24
2017-06-24T00:33:20.595Z,56.24
2017-06-24T00:33:46.142Z,56.43
2017-06-24T00:34:11.708Z,56.24
2017-06-24T00:34:37.287Z,56.43
2017-06-24T00:35:02.876Z,56.24
2017-06-24T00:35:28.452Z,56.43
2017-06-24T00:35:54.042Z,56.34
2017-06-24T00:36:19.593Z,56.34
2017-06-24T00:36:45.169Z,56.43
2017-06-24T00:37:10.746Z,56.43
2017-06-24T00:37:36.307Z,56.43
2017-06-24T00:38:01.872Z,56.43
2017-06-24T00:38:27.431Z,56.43
2017-06-24T00:38:53.073Z,56.34
2017-06-24T00:39:18.657Z,56.43
2017-06-24T00:39:44.207Z,56.43
2017-06-24T00:40:09.764Z,56.24
2017-06-24T00:40:35.328Z,56.43
2017-06-24T00:41:00.928Z,56.43
2017-06-24T00:41:26.491Z,56.43
2017-06-24T00:41:52.055Z,56.24
2017-06-24T00:42:17.636Z,56.52
2017-06-24T00:42:43.206Z,56.43
2017-06-24T00:43:08.768Z,56.43
2017-06-24T00:43:34.349Z,56.43
2017-06-24T00:44:00.003Z,56.52
2017-06-24T00:44:25.569Z,56.52
2017-06-24T00:44:51.150Z,56.52
2017-06-24T00:45:16.713Z,56.24
2017-06-24T00:45:42.265Z,56.52
2017-06-24T00:46:07.829Z,56.43
2017-06-24T00:46:33.388Z,56.43
2017-06-24T00:46:59.097Z,56.43
2017-06-24T00:47:24.671Z,56.43
2017-06-24T00:47:50.248Z,56.52
2017-06-24T00:48:15.904Z,56.52
2017-06-24T00:48:41.488Z,56.43
2017-06-24T00:49:07.068Z,56.52
2017-06-24T00:49:32.635Z,56.52
2017-06-24T00:49:58.199Z,56.52
2017-06-24T00:50:23.768Z,56.43
2017-06-24T00:50:49.375Z,56.43
2017-06-24T00:51:14.936Z,56.43
2017-06-24T00:51:40.512Z,56.52
2017-06-24T00:52:06.080Z,56.52
2017-06-24T00:52:31.644Z,56.43
2017-06-24T00:52:57.216Z,56.43
2017-06-24T00:53:22.834Z,56.52
2017-06-24T00:53:48.398Z,56.43
2017-06-24T00:54:13.962Z,56.52
2017-06-24T00:54:39.531Z,56.72
2017-06-24T00:55:05.088Z,56.52
2017-06-24T00:55:30.649Z,56.52
2017-06-24T00:55:56.247Z,56.43
2017-06-24T00:56:21.822Z,56.43
2017-06-24T00:56:47.397Z,56.43
2017-06-24T00:57:12.950Z,56.62
2017-06-24T00:57:38.518Z,56.43
2017-06-24T00:58:04.094Z,56.52
2017-06-24T00:58:29.691Z,56.62
2017-06-24T00:58:55.265Z,56.62
2017-06-24T00:59:20.836Z,56.52
2017-06-24T00:59:46.400Z,56.43
2017-06-24T01:00:11.954Z,56.52
2017-06-24T01:00:37.593Z,56.72
2017-06-24T01:01:03.159Z,56.43
2017-06-24T01:01:28.744Z,56.82
2017-06-24T01:01:54.332Z,56.43
2017-06-24T01:02:19.908Z,56.72
2017-06-24T01:02:45.488Z,56.52
2017-06-24T01:03:11.050Z,56.43
2017-06-24T01:03:36.618Z,56.62
2017-06-24T01:04:02.278Z,56.43
2017-06-24T01:04:27.841Z,56.72
2017-06-24T01:04:53.419Z,56.43
2017-06-24T01:05:18.989Z,56.72
2017-06-24T01:05:44.555Z,56.52
2017-06-24T01:06:10.118Z,56.52
2017-06-24T01:06:35.733Z,56.43
2017-06-24T01:07:01.300Z,56.52
2017-06-24T01:07:26.859Z,56.43
2017-06-24T01:07:52.414Z,56.43
2017-06-24T01:08:17.986Z,56.52
2017-06-24T01:08:43.561Z,56.62
2017-06-24T01:09:09.113Z,56.43
2017-06-24T01:09:34.685Z,56.62
2017-06-24T01:10:00.237Z,56.72
2017-06-24T01:10:25.811Z,56.52
2017-06-24T01:10:51.375Z,56.62
2017-06-24T01:11:16.938Z,56.34
2017-06-24T01:11:42.535Z,56.52
2017-06-24T01:12:08.111Z,56.62
2017-06-24T01:12:33.688Z,56.52
2017-06-24T01:12:59.343Z,56.52
2017-06-24T01:13:24.923Z,56.82
2017-06-24T01:13:50.499Z,56.43
2017-06-24T01:14:16.082Z,56.43
2017-06-24T01:14:41.698Z,56.52
2017-06-24T01:15:07.284Z,56.43
2017-06-24T01:15:32.858Z,56.43
2017-06-24T01:15:58.428Z,56.62
2017-06-24T01:16:23.997Z,56.43
2017-06-24T01:16:49.583Z,56.62
2017-06-24T01:17:15.199Z,56.72
2017-06-24T01:17:40.778Z,56.43
2017-06-24T01:18:06.351Z,56.43
2017-06-24T01:18:31.906Z,56.62
2017-06-24T01:18:57.480Z,56.34
2017-06-24T01:19:23.057Z,56.72
2017-06-24T01:19:48.630Z,56.62
2017-06-24T01:20:14.192Z,56.52
2017-06-24T01:20:39.761Z,56.52
2017-06-24T01:21:05.342Z,56.62
2017-06-24T01:21:30.908Z,56.43
2017-06-24T01:21:56.467Z,56.62
2017-06-24T01:22:22.037Z,56.52
2017-06-24T01:22:47.593Z,56.72
2017-06-24T01:23:13.156Z,56.72
2017-06-24T01:23:38.730Z,56.52
2017-06-24T01:24:04.299Z,56.72
2017-06-24T01:24:29.868Z,56.62
2017-06-24T01:24:55.436Z,56.72
2017-06-24T01:25:20.988Z,56.62
2017-06-24T01:25:46.579Z,56.82
2017-06-24T01:26:12.135Z,56.72
2017-06-24T01:26:37.703Z,56.72
2017-06-24T01:27:03.269Z,56.72
2017-06-24T01:27:28.833Z,56.92
2017-06-24T01:27:54.392Z,56.82
2017-06-24T01:28:19.967Z,56.82
2017-06-24T01:28:45.539Z,57.01
2017-06-24T01:29:11.110Z,56.52
2017-06-24T01:29:36.745Z,56.72
2017-06-24T01:30:02.337Z,56.92
2017-06-24T01:30:27.889Z,56.82
2017-06-24T01:30:53.537Z,57.4
2017-06-24T01:31:19.098Z,56.92
2017-06-24T01:31:44.666Z,56.72
2017-06-24T01:32:10.252Z,57.4
2017-06-24T01:32:35.821Z,57.01
2017-06-24T01:33:01.520Z,57.01
2017-06-24T01:33:27.090Z,57.3
2017-06-24T01:33:52.651Z,57.11
2017-06-24T01:34:18.291Z,57.01
2017-06-24T01:34:43.862Z,57.4
2017-06-24T01:35:09.416Z,57.01
2017-06-24T01:35:35.000Z,57.11
2017-06-24T01:36:00.568Z,57.2
2017-06-24T01:36:26.140Z,57.3
2017-06-24T01:36:51.714Z,57.11
2017-06-24T01:37:17.279Z,57.11
2017-06-24T01:37:42.848Z,57.11
2017-06-24T01:38:08.410Z,57.2
2017-06-24T01:38:33.978Z,57.3
2017-06-24T01:38:59.557Z,57.11
2017-06-24T01:39:25.217Z,57.11
2017-06-24T01:39:50.799Z,57.2
2017-06-24T01:40:16.362Z,57.2
2017-06-24T01:40:41.943Z,57.11
2017-06-24T01:41:07.539Z,57.11
2017-06-24T01:41:33.097Z,57.01
2017-06-24T01:41:58.679Z,57.11
2017-06-24T01:42:24.269Z,57.11
2017-06-24T01:42:49.818Z,57.11
2017-06-24T01:43:15.435Z,56.92
2017-06-24T01:43:41.010Z,57.01
2017-06-24T01:44:06.579Z,57.11
2017-06-24T01:44:32.151Z,56.79
2017-06-24T01:44:57.709Z,56.82
2017-06-24T01:45:23.270Z,56.72
2017-06-24T01:45:48.892Z,57.01
2017-06-24T01:46:14.486Z,57.11
2017-06-24T01:46:40.047Z,57.11
2017-06-24T01:47:05.620Z,57.11
2017-06-24T01:47:31.209Z,57.2
2017-06-24T01:47:56.768Z,57.01
2017-06-24T01:48:22.349Z,57.11
2017-06-24T01:48:47.925Z,57.01
2017-06-24T01:49:13.499Z,57.11
2017-06-24T01:49:39.047Z,56.82
2017-06-24T01:50:04.628Z,56.82
2017-06-24T01:50:30.210Z,57.11
2017-06-24T01:50:55.795Z,57.11
2017-06-24T01:51:21.359Z,57.11
2017-06-24T01:51:46.950Z,57.01
2017-06-24T01:52:12.503Z,57.11
2017-06-24T01:52:38.141Z,56.92
2017-06-24T01:53:03.719Z,57.11
2017-06-24T01:53:29.295Z,56.92
2017-06-24T01:53:54.850Z,57.2
2017-06-24T01:54:20.415Z,56.92
2017-06-24T01:54:45.989Z,57.3
2017-06-24T01:55:11.555Z,57.2
2017-06-24T01:55:37.129Z,57.2
2017-06-24T01:56:02.701Z,57.3
2017-06-24T01:56:28.279Z,57.3
2017-06-24T01:56:53.846Z,57.3
2017-06-24T01:57:19.413Z,57.4
2017-06-24T01:57:44.975Z,57.2
2017-06-24T01:58:10.548Z,57.3
2017-06-24T01:58:36.162Z,57.2
2017-06-24T01:59:01.791Z,57.2
2017-06-24T01:59:27.358Z,57.59
2017-06-24T01:59:52.929Z,57.11
2017-06-24T02:00:18.489Z,57.3
2017-06-24T02:00:44.109Z,57.3
2017-06-24T02:01:09.687Z,57.3
2017-06-24T02:01:35.249Z,57.4
2017-06-24T02:02:00.817Z,57.2
2017-06-24T02:02:26.402Z,57.3
2017-06-24T02:02:51.968Z,57.3
2017-06-24T02:03:17.529Z,57.01
2017-06-24T02:03:43.100Z,57.59
2017-06-24T02:04:08.676Z,57.5
2017-06-24T02:04:34.240Z,57.01
2017-06-24T02:04:59.805Z,57.4
2017-06-24T02:05:25.382Z,57.2
2017-06-24T02:05:50.974Z,57.2
2017-06-24T02:06:16.557Z,57.59
2017-06-24T02:06:42.106Z,57.4
2017-06-24T02:07:07.688Z,57.59
2017-06-24T02:07:33.249Z,57.59
2017-06-24T02:07:58.840Z,57.59
2017-06-24T02:08:24.469Z,57.4
2017-06-24T02:08:50.047Z,57.2
2017-06-24T02:09:15.608Z,57.59
2017-06-24T02:09:41.169Z,57.4
2017-06-24T02:10:06.749Z,57.59
2017-06-24T02:10:32.308Z,57.2
2017-06-24T02:10:57.895Z,57.59
2017-06-24T02:11:23.461Z,57.59
2017-06-24T02:11:49.011Z,57.4
2017-06-24T02:12:14.687Z,57.59
2017-06-24T02:12:40.250Z,57.59
2017-06-24T02:13:05.821Z,57.5
2017-06-24T02:13:31.410Z,57.5
2017-06-24T02:13:57.006Z,57.59
2017-06-24T02:14:22.596Z,57.11
2017-06-24T02:14:48.178Z,57.5
2017-06-24T02:15:13.749Z,57.59
2017-06-24T02:15:39.320Z,57.5
2017-06-24T02:16:04.972Z,57.59
2017-06-24T02:16:30.548Z,57.3
2017-06-24T02:16:56.115Z,57.4
2017-06-24T02:17:21.687Z,57.5
2017-06-24T02:17:47.280Z,57.4
2017-06-24T02:18:12.839Z,57.59
2017-06-24T02:18:38.412Z,57.59
2017-06-24T02:19:03.982Z,57.3
2017-06-24T02:19:29.558Z,57.2
2017-06-24T02:19:55.124Z,57.4
2017-06-24T02:20:20.739Z,57.2
2017-06-24T02:20:46.307Z,57.59
2017-06-24T02:21:11.900Z,57.3
2017-06-24T02:21:37.452Z,57.2
2017-06-24T02:22:03.041Z,57.4
2017-06-24T02:22:28.614Z,57.4
2017-06-24T02:22:54.190Z,57.3
2017-06-24T02:23:19.761Z,57.3
2017-06-24T02:23:45.337Z,57.3
2017-06-24T02:24:10.908Z,57.4
2017-06-24T02:24:36.468Z,57.4
2017-06-24T02:25:02.032Z,57.4
2017-06-24T02:25:27.593Z,57.4
2017-06-24T02:25:53.156Z,57.4
2017-06-24T02:26:18.729Z,57.4
2017-06-24T02:26:44.358Z,57.4
2017-06-24T02:27:09.932Z,57.3
2017-06-24T02:27:35.500Z,57.3
2017-06-24T02:28:01.068Z,57.4
2017-06-24T02:28:26.638Z,57.18
2017-06-24T02:28:52.203Z,57.5
2017-06-24T02:29:17.757Z,57.2
2017-06-24T02:29:43.338Z,57.5
2017-06-24T02:30:08.910Z,57.4
2017-06-24T02:30:34.548Z,57.4
2017-06-24T02:31:00.119Z,57.5
2017-06-24T02:31:25.691Z,57.5
2017-06-24T02:31:51.254Z,57.3
2017-06-24T02:32:16.820Z,57.3
2017-06-24T02:32:42.378Z,57.4
2017-06-24T02:33:07.997Z,57.4
2017-06-24T02:33:33.569Z,57.4
2017-06-24T02:33:59.148Z,57.4
2017-06-24T02:34:24.710Z,57.4
2017-06-24T02:34:50.272Z,57.3
2017-06-24T02:35:15.855Z,57.3
2017-06-24T02:35:41.401Z,57.4
2017-06-24T02:36:07.049Z,57.5
2017-06-24T02:36:32.601Z,57.3
2017-06-24T02:36:58.179Z,57.3
2017-06-24T02:37:23.734Z,57.4
2017-06-24T02:37:49.299Z,57.3
2017-06-24T02:38:14.880Z,57.3
2017-06-24T02:38:40.450Z,57.5
2017-06-24T02:39:06.019Z,57.3
2017-06-24T02:39:31.617Z,57.4
2017-06-24T02:39:57.312Z,57.5
2017-06-24T02:40:22.873Z,57.5
2017-06-24T02:40:48.427Z,57.5
2017-06-24T02:41:13.999Z,57.4
2017-06-24T02:41:39.568Z,57.5
2017-06-24T02:42:05.139Z,57.5
2017-06-24T02:42:30.699Z,57.5
2017-06-24T02:42:56.282Z,57.5
2017-06-24T02:43:21.837Z,57.69
2017-06-24T02:43:47.419Z,57.59
2017-06-24T02:44:12.992Z,57.5
2017-06-24T02:44:38.573Z,57.5
2017-06-24T02:45:04.149Z,57.4
2017-06-24T02:45:29.716Z,57.5
2017-06-24T02:45:55.291Z,57.5
2017-06-24T02:46:20.856Z,57.5
2017-06-24T02:46:46.529Z,57.5
2017-06-24T02:47:12.105Z,57.4
2017-06-24T02:47:37.680Z,57.5
2017-06-24T02:48:03.248Z,57.46
2017-06-24T02:48:28.830Z,57.5
2017-06-24T02:48:54.394Z,57.4
2017-06-24T02:49:19.960Z,57.3
2017-06-24T02:49:45.531Z,57.3
2017-06-24T02:50:11.133Z,57.28
2017-06-24T02:50:36.719Z,57.3
2017-06-24T02:51:02.295Z,57.2
2017-06-24T02:51:27.894Z,57.4
2017-06-24T02:51:53.472Z,57.3
2017-06-24T02:52:19.039Z,57.5
2017-06-24T02:52:44.609Z,57.5
2017-06-24T02:53:10.251Z,57.3
2017-06-24T02:53:35.827Z,57.5
2017-06-24T02:54:01.391Z,57.5
2017-06-24T02:54:26.945Z,57.3
2017-06-24T02:54:52.522Z,57.3
2017-06-24T02:55:18.090Z,57.3
2017-06-24T02:55:43.667Z,57.3
2017-06-24T02:56:09.232Z,57.2
2017-06-24T02:56:34.803Z,57.59
2017-06-24T02:57:00.368Z,57.3
2017-06-24T02:57:25.964Z,57.2
2017-06-24T02:57:51.526Z,57.3
2017-06-24T02:58:17.108Z,57.2
2017-06-24T02:58:42.663Z,57.4
2017-06-24T02:59:08.238Z,57.4
2017-06-24T02:59:33.815Z,57.5
2017-06-24T02:59:59.389Z,57.3
2017-06-24T03:00:24.957Z,57.4
2017-06-24T03:00:50.532Z,57.4
2017-06-24T03:01:16.096Z,57.4
2017-06-24T03:01:41.669Z,57.5
2017-06-24T03:02:07.233Z,57.2
2017-06-24T03:02:32.793Z,57.59
2017-06-24T03:02:58.355Z,57.59
2017-06-24T03:03:24.017Z,57.2
2017-06-24T03:03:49.579Z,57.5
2017-06-24T03:04:15.152Z,57.5
2017-06-24T03:04:40.798Z,57.4
2017-06-24T03:05:06.379Z,57.5
2017-06-24T03:05:31.938Z,57.5
2017-06-24T03:05:57.505Z,57.11
2017-06-24T03:06:23.089Z,57.4
2017-06-24T03:06:48.653Z,57.5
2017-06-24T03:07:14.204Z,57.5
2017-06-24T03:07:39.782Z,57.11
2017-06-24T03:08:05.372Z,57.3
2017-06-24T03:08:30.953Z,57.5
2017-06-24T03:08:56.608Z,57.2
2017-06-24T03:09:22.173Z,57.11
2017-06-24T03:09:47.730Z,57.5
2017-06-24T03:10:13.321Z,57.5
2017-06-24T03:10:38.887Z,57.5
2017-06-24T03:11:04.451Z,57.2
2017-06-24T03:11:30.021Z,57.11
2017-06-24T03:11:55.591Z,57.3
2017-06-24T03:12:21.159Z,57.2
2017-06-24T03:12:46.738Z,57.11
2017-06-24T03:13:12.291Z,57.3
2017-06-24T03:13:37.852Z,57.3
2017-06-24T03:14:03.460Z,57.11
2017-06-24T03:14:29.034Z,57.2
2017-06-24T03:14:54.623Z,57.3
2017-06-24T03:15:20.191Z,57.11
2017-06-24T03:15:45.760Z,57.11
2017-06-24T03:16:11.328Z,57.2
2017-06-24T03:16:36.891Z,57.11
2017-06-24T03:17:02.444Z,57.3
2017-06-24T03:17:28.019Z,57.2
2017-06-24T03:17:53.589Z,57.11
2017-06-24T03:18:19.147Z,57.3
2017-06-24T03:18:44.709Z,57.2
2017-06-24T03:19:10.288Z,57.2
2017-06-24T03:19:35.862Z,57.2
2017-06-24T03:20:01.492Z,57.3
2017-06-24T03:20:27.052Z,57.3
2017-06-24T03:20:52.599Z,57.3
2017-06-24T03:21:18.191Z,57.2
2017-06-24T03:21:43.764Z,57.3
2017-06-24T03:22:09.351Z,57.4
2017-06-24T03:22:34.911Z,57.01
2017-06-24T03:23:00.468Z,57.4
2017-06-24T03:23:26.041Z,57.5
2017-06-24T03:23:51.608Z,57.3
2017-06-24T03:24:17.169Z,57.3
2017-06-24T03:24:42.740Z,57.3
2017-06-24T03:25:08.319Z,57.3
2017-06-24T03:25:33.968Z,57.28
2017-06-24T03:25:59.543Z,57.3
2017-06-24T03:26:25.109Z,57.2
2017-06-24T03:26:50.673Z,57.4
2017-06-24T03:27:16.259Z,57.3
2017-06-24T03:27:41.840Z,56.92
2017-06-24T03:28:07.400Z,57.3
2017-06-24T03:28:32.959Z,57.3
2017-06-24T03:28:58.518Z,57.3
2017-06-24T03:29:24.065Z,57.4
2017-06-24T03:29:49.642Z,57.3
2017-06-24T03:30:15.223Z,57.5
2017-06-24T03:30:40.786Z,57.3
2017-06-24T03:31:06.351Z,57.3
2017-06-24T03:31:31.919Z,57.4
2017-06-24T03:31:57.498Z,57.4
2017-06-24T03:32:23.060Z,57.4
2017-06-24T03:32:48.642Z,57.4
2017-06-24T03:33:14.206Z,57.79
2017-06-24T03:33:39.768Z,57.69
2017-06-24T03:34:05.332Z,58.24
2017-06-24T03:34:30.920Z,58.27
2017-06-24T03:34:56.487Z,57.79
2017-06-24T03:35:22.054Z,57.79
2017-06-24T03:35:47.623Z,57.88
2017-06-24T03:36:13.191Z,57.88
2017-06-24T03:36:38.760Z,58.04
2017-06-24T03:37:04.345Z,57.69
2017-06-24T03:37:29.920Z,58.07
2017-06-24T03:37:55.486Z,58.07
2017-06-24T03:38:21.070Z,58.17
2017-06-24T03:38:46.643Z,58.27
2017-06-24T03:39:12.206Z,58.14
2017-06-24T03:39:37.801Z,58.07
2017-06-24T03:40:03.372Z,58.44
2017-06-24T03:40:28.941Z,59.01
2017-06-24T03:40:54.504Z,58.92
2017-06-24T03:41:20.070Z,58.72
2017-06-24T03:41:45.641Z,58.75
2017-06-24T03:42:11.210Z,58.92
2017-06-24T03:42:36.778Z,58.44
2017-06-24T03:43:02.339Z,58.92
2017-06-24T03:43:27.907Z,58.92
2017-06-24T03:43:53.466Z,58.72
2017-06-24T03:44:19.027Z,59.01
2017-06-24T03:44:44.597Z,58.63
2017-06-24T03:45:10.174Z,58.53
2017-06-24T03:45:35.754Z,58.82
2017-06-24T03:46:01.325Z,58.82
2017-06-24T03:46:26.889Z,58.14
2017-06-24T03:46:52.466Z,58.92
2017-06-24T03:47:18.087Z,59.23
2017-06-24T03:47:43.657Z,58.53
2017-06-24T03:48:09.277Z,58.63
2017-06-24T03:48:34.844Z,58.53
2017-06-24T03:49:00.418Z,58.63
2017-06-24T03:49:25.989Z,58.72
2017-06-24T03:49:51.549Z,58.63
2017-06-24T03:50:17.117Z,58.63
2017-06-24T03:50:42.696Z,58.56
2017-06-24T03:51:08.278Z,58.53
2017-06-24T03:51:33.848Z,58.72
2017-06-24T03:51:59.409Z,58.92
2017-06-24T03:52:24.971Z,58.92
2017-06-24T03:52:50.549Z,58.82
2017-06-24T03:53:16.135Z,58.72
2017-06-24T03:53:41.841Z,58.82
2017-06-24T03:54:07.398Z,58.53
2017-06-24T03:54:32.970Z,58.53
2017-06-24T03:54:58.549Z,58.82
2017-06-24T03:55:24.111Z,58.44
2017-06-24T03:55:49.676Z,58.44
2017-06-24T03:56:15.243Z,58.72
2017-06-24T03:56:40.808Z,59.01
2017-06-24T03:57:06.380Z,58.82
2017-06-24T03:57:31.950Z,58.92
2017-06-24T03:57:57.528Z,58.82
2017-06-24T03:58:23.089Z,59.11
2017-06-24T03:58:48.662Z,59.01
2017-06-24T03:59:14.292Z,59.01
2017-06-24T03:59:39.860Z,58.92
2017-06-24T04:00:05.431Z,59.11
2017-06-24T04:00:30.990Z,59.31
2017-06-24T04:00:56.553Z,59.4
2017-06-24T04:01:22.150Z,59.4
2017-06-24T04:01:47.715Z,59.4
2017-06-24T04:02:13.289Z,59.5
2017-06-24T04:02:38.849Z,59.4
2017-06-24T04:03:04.453Z,59.5
2017-06-24T04:03:30.081Z,59.31
2017-06-24T04:03:55.646Z,59.11
2017-06-24T04:04:21.278Z,59.5
2017-06-24T04:04:46.885Z,59.21
2017-06-24T04:05:12.444Z,59.21
2017-06-24T04:05:38.023Z,59.4
2017-06-24T04:06:03.585Z,59.4
2017-06-24T04:06:29.149Z,59.4
2017-06-24T04:06:54.720Z,59.31
2017-06-24T04:07:20.287Z,59.4
2017-06-24T04:07:45.861Z,59.4
2017-06-24T04:08:11.441Z,59.5
2017-06-24T04:08:37.010Z,59.31
2017-06-24T04:09:02.583Z,59.4
2017-06-24T04:09:28.143Z,59.4
2017-06-24T04:09:53.698Z,59.4
2017-06-24T04:10:19.260Z,59.5
2017-06-24T04:10:44.889Z,59.5
2017-06-24T04:11:10.499Z,59.31
2017-06-24T04:11:36.078Z,59.4
2017-06-24T04:12:01.647Z,59.5
2017-06-24T04:12:27.201Z,59.11
2017-06-24T04:12:52.770Z,59.31
2017-06-24T04:13:18.349Z,59.21
2017-06-24T04:13:43.916Z,59.31
2017-06-24T04:14:09.475Z,59.31
2017-06-24T04:14:35.052Z,59.31
2017-06-24T04:15:00.679Z,59.31
2017-06-24T04:15:26.232Z,59.5
2017-06-24T04:15:51.809Z,59.31
2017-06-24T04:16:17.438Z,59.11
2017-06-24T04:16:43.000Z,59.31
2017-06-24T04:17:08.567Z,59.11
2017-06-24T04:17:34.126Z,59.5
2017-06-24T04:17:59.691Z,59.4
2017-06-24T04:18:25.270Z,59.4
2017-06-24T04:18:50.838Z,59.4
2017-06-24T04:19:16.429Z,59.59
2017-06-24T04:19:42.011Z,59.59
2017-06-24T04:20:07.620Z,59.59
2017-06-24T04:20:33.190Z,59.79
2017-06-24T04:20:58.766Z,59.4
2017-06-24T04:21:24.329Z,59.89
2017-06-24T04:21:49.893Z,59.5
2017-06-24T04:22:15.470Z,59.98
2017-06-24T04:22:41.034Z,59.98
2017-06-24T04:23:06.588Z,59.89
2017-06-24T04:23:32.154Z,59.79
2017-06-24T04:23:57.819Z,59.79
2017-06-24T04:24:23.388Z,59.79
2017-06-24T04:24:48.958Z,59.89
2017-06-24T04:25:14.517Z,59.79
2017-06-24T04:25:40.071Z,59.89
2017-06-24T04:26:05.639Z,59.59
2017-06-24T04:26:31.264Z,59.59
2017-06-24T04:26:56.818Z,59.79
2017-06-24T04:27:22.390Z,59.79
2017-06-24T04:27:47.995Z,59.79
2017-06-24T04:28:13.561Z,59.89
2017-06-24T04:28:39.129Z,59.89
2017-06-24T04:29:04.740Z,59.98
2017-06-24T04:29:30.421Z,59.98
2017-06-24T04:29:55.993Z,59.98
2017-06-24T04:30:21.557Z,59.79
2017-06-24T04:30:47.120Z,59.69
2017-06-24T04:31:12.707Z,59.89
2017-06-24T04:31:38.287Z,59.98
2017-06-24T04:32:03.883Z,59.79
2017-06-24T04:32:29.442Z,59.89
2017-06-24T04:32:55.008Z,59.69
2017-06-24T04:33:20.570Z,59.5
2017-06-24T04:33:46.125Z,59.5
2017-06-24T04:34:11.710Z,59.69
2017-06-24T04:34:37.274Z,59.5
2017-06-24T04:35:02.841Z,59.59
2017-06-24T04:35:28.408Z,59.5
2017-06-24T04:35:54.067Z,59.59
2017-06-24T04:36:19.626Z,59.5
2017-06-24T04:36:45.198Z,59.69
2017-06-24T04:37:10.756Z,59.69
2017-06-24T04:37:36.318Z,59.59
2017-06-24T04:38:01.901Z,59.59
2017-06-24T04:38:27.470Z,59.5
2017-06-24T04:38:53.041Z,59.5
2017-06-24T04:39:18.607Z,59.5
2017-06-24T04:39:44.176Z,59.59
2017-06-24T04:40:09.740Z,59.69
2017-06-24T04:40:35.311Z,59.59
2017-06-24T04:41:00.880Z,59.59
2017-06-24T04:41:26.457Z,59.59
2017-06-24T04:41:52.029Z,59.79
2017-06-24T04:42:17.640Z,59.79
2017-06-24T04:42:43.212Z,59.69
2017-06-24T04:43:08.768Z,59.59
2017-06-24T04:43:34.340Z,59.79
2017-06-24T04:43:59.919Z,59.69
2017-06-24T04:44:25.477Z,59.89
2017-06-24T04:44:51.099Z,59.69
2017-06-24T04:45:16.669Z,59.59
2017-06-24T04:45:42.238Z,59.59
2017-06-24T04:46:07.810Z,59.79
2017-06-24T04:46:33.381Z,59.59
2017-06-24T04:46:58.942Z,59.59
2017-06-24T04:47:24.510Z,59.59
2017-06-24T04:47:50.179Z,59.59
2017-06-24T04:48:15.745Z,59.59
2017-06-24T04:48:41.306Z,59.59
2017-06-24T04:49:06.869Z,59.69
2017-06-24T04:49:32.441Z,59.69
2017-06-24T04:49:58.014Z,59.59
2017-06-24T04:50:23.586Z,59.59
2017-06-24T04:50:49.172Z,59.59
2017-06-24T04:51:14.745Z,59.59
2017-06-24T04:51:40.439Z,59.59
2017-06-24T04:52:05.998Z,59.5
2017-06-24T04:52:31.555Z,59.59
2017-06-24T04:52:57.140Z,59.59
2017-06-24T04:53:22.682Z,59.69
2017-06-24T04:53:48.262Z,59.59
2017-06-24T04:54:13.905Z,59.69
2017-06-24T04:54:39.473Z,59.79
2017-06-24T04:55:05.046Z,59.79
2017-06-24T04:55:30.616Z,59.59
2017-06-24T04:55:56.189Z,59.5
2017-06-24T04:56:21.749Z,59.5
2017-06-24T04:56:47.371Z,59.5
2017-06-24T04:57:12.936Z,59.89
2017-06-24T04:57:38.511Z,59.4
2017-06-24T04:58:04.082Z,59.5
2017-06-24T04:58:29.645Z,59.5
2017-06-24T04:58:55.206Z,59.5
2017-06-24T04:59:20.780Z,59.69
2017-06-24T04:59:46.352Z,59.59
2017-06-24T05:00:11.918Z,59.69
2017-06-24T05:00:37.479Z,59.59
2017-06-24T05:01:03.037Z,59.69
2017-06-24T05:01:28.611Z,59.59
2017-06-24T05:01:54.192Z,59.5
2017-06-24T05:02:19.890Z,59.59
2017-06-24T05:02:45.452Z,59.59
2017-06-24T05:03:11.014Z,59.59
2017-06-24T05:03:36.596Z,59.59
2017-06-24T05:04:02.158Z,59.59
2017-06-24T05:04:27.726Z,59.5
2017-06-24T05:04:53.330Z,59.69
2017-06-24T05:05:18.901Z,59.69
2017-06-24T05:05:44.475Z,59.59
2017-06-24T05:06:10.034Z,59.69
2017-06-24T05:06:35.628Z,59.79
2017-06-24T05:07:01.191Z,59.69
2017-06-24T05:07:26.758Z,59.69
2017-06-24T05:07:52.335Z,59.69
2017-06-24T05:08:17.898Z,59.5
2017-06-24T05:08:43.470Z,59.69
2017-06-24T05:09:09.030Z,59.79
2017-06-24T05:09:34.608Z,59.5
2017-06-24T05:10:00.236Z,59.89
2017-06-24T05:10:25.805Z,59.89
2017-06-24T05:10:51.374Z,59.5
2017-06-24T05:11:16.945Z,59.5
2017-06-24T05:11:42.509Z,59.79
2017-06-24T05:12:08.097Z,59.89
2017-06-24T05:12:33.660Z,59.89
2017-06-24T05:12:59.228Z,59.69
2017-06-24T05:13:24.798Z,59.5
2017-06-24T05:13:50.376Z,59.79
2017-06-24T05:14:15.950Z,59.5
2017-06-24T05:14:41.520Z,59.59
2017-06-24T05:15:07.078Z,59.89
2017-06-24T05:15:32.659Z,59.89
2017-06-24T05:15:58.229Z,59.59
2017-06-24T05:16:23.806Z,59.79
2017-06-24T05:16:49.381Z,59.5
2017-06-24T05:17:14.970Z,59.89
2017-06-24T05:17:40.571Z,59.79
2017-06-24T05:18:06.134Z,59.79
2017-06-24T05:18:31.705Z,59.4
2017-06-24T05:18:57.276Z,59.79
2017-06-24T05:19:22.832Z,59.89
2017-06-24T05:19:48.433Z,59.79
2017-06-24T05:20:14.010Z,59.89
2017-06-24T05:20:39.670Z,59.79
2017-06-24T05:21:05.246Z,59.89
2017-06-24T05:21:30.809Z,59.89
2017-06-24T05:21:56.395Z,59.79
2017-06-24T05:22:21.961Z,59.79
2017-06-24T05:22:47.526Z,59.5
2017-06-24T05:23:13.089Z,59.89
2017-06-24T05:23:38.659Z,59.89
2017-06-24T05:24:04.234Z,59.59
2017-06-24T05:24:29.950Z,59.59
2017-06-24T05:24:55.500Z,59.79
2017-06-24T05:25:21.080Z,59.89
2017-06-24T05:25:46.648Z,59.69
2017-06-24T05:26:12.230Z,59.89
2017-06-24T05:26:37.810Z,59.89
2017-06-24T05:27:03.370Z,59.89
2017-06-24T05:27:28.929Z,59.79
2017-06-24T05:27:54.499Z,59.5
2017-06-24T05:28:20.070Z,59.89
2017-06-24T05:28:45.631Z,59.79
2017-06-24T05:29:11.198Z,59.4
2017-06-24T05:29:36.845Z,59.59
2017-06-24T05:30:02.405Z,59.79
2017-06-24T05:30:28.003Z,60.57
2017-06-24T05:30:53.554Z,60.08
2017-06-24T05:31:19.129Z,60.27
2017-06-24T05:31:44.703Z,60.27
2017-06-24T05:32:10.268Z,60.47
2017-06-24T05:32:35.833Z,59.98